createdAt,value
2023-02-16T00:00:30.067Z,0.12
2023-02-16T00:01:30.072Z,0.18
2023-02-16T00:02:30.095Z,0.22
2023-02-16T00:03:30.172Z,0.11
2023-02-16T00:04:30.042Z,0.18
2023-02-16T00:05:30.022Z,0.21
2023-02-16T00:06:30.012Z,0.28
2023-02-16T00:07:30.004Z,0.39
2023-02-16T00:08:30.010Z,0.32
2023-02-16T00:09:29.994Z,0.39
2023-02-16T00:10:29.985Z,0.44
2023-02-16T00:11:29.972Z,0.47
2023-02-16T00:12:29.951Z,0.47
2023-02-16T00:13:30.966Z,0.46
2023-02-16T00:14:29.966Z,0.46
2023-02-16T00:15:29.944Z,0.50
2023-02-16T00:16:29.947Z,0.55
2023-02-16T00:17:29.983Z,0.50
2023-02-16T00:18:29.921Z,0.52
2023-02-16T00:19:30.832Z,0.58
2023-02-16T00:20:29.901Z,0.63
2023-02-16T00:21:29.893Z,0.73
2023-02-16T00:22:29.889Z,0.69
2023-02-16T00:23:29.890Z,0.80
2023-02-16T00:25:19.658Z,0.69
2023-02-16T00:26:19.656Z,0.80
2023-02-16T00:27:19.653Z,0.84
2023-02-16T00:28:19.656Z,0.77
2023-02-16T00:29:19.641Z,0.83
2023-02-16T00:30:19.668Z,0.87
2023-02-16T00:31:19.779Z,0.87
2023-02-16T00:32:19.790Z,0.95
2023-02-16T00:33:19.629Z,0.86
2023-02-16T00:34:20.693Z,0.92
2023-02-16T00:35:20.698Z,0.94
2023-02-16T00:36:20.675Z,0.80
2023-02-16T00:37:20.669Z,0.86
2023-02-16T00:38:20.700Z,0.84
2023-02-16T00:39:20.659Z,0.88
2023-02-16T00:40:20.649Z,0.96
2023-02-16T00:41:20.632Z,0.94
2023-02-16T00:42:20.629Z,0.96
2023-02-16T00:43:20.634Z,0.99
2023-02-16T00:44:20.610Z,0.96
2023-02-16T00:45:20.619Z,1.04
2023-02-16T00:46:20.633Z,1.01
2023-02-16T00:47:20.590Z,0.95
2023-02-16T00:48:20.601Z,0.94
2023-02-16T00:49:20.591Z,0.98
2023-02-16T00:50:20.563Z,0.86
2023-02-16T00:51:26.053Z,0.91
2023-02-16T00:52:23.522Z,0.77
2023-02-16T00:53:20.554Z,0.76
2023-02-16T00:54:20.551Z,0.76
2023-02-16T00:55:20.522Z,0.76
2023-02-16T00:56:20.515Z,0.69
2023-02-16T00:57:20.512Z,0.74
2023-02-16T00:58:20.524Z,0.84
2023-02-16T00:59:21.112Z,0.77
2023-02-16T01:00:20.485Z,0.70
2023-02-16T01:01:20.499Z,0.77
2023-02-16T01:02:21.104Z,0.62
2023-02-16T01:03:20.629Z,0.60
2023-02-16T01:04:21.140Z,0.63
2023-02-16T01:05:21.188Z,0.63
2023-02-16T01:06:20.438Z,0.55
2023-02-16T01:07:20.434Z,0.66
2023-02-16T01:08:20.422Z,0.68
2023-02-16T01:09:21.021Z,0.68
2023-02-16T01:10:20.420Z,0.81
2023-02-16T01:11:20.399Z,0.80
2023-02-16T01:12:20.401Z,0.81
2023-02-16T01:13:20.385Z,0.76
2023-02-16T01:14:20.370Z,0.78
2023-02-16T01:15:20.372Z,0.84
2023-02-16T01:16:20.350Z,0.96
2023-02-16T01:17:20.354Z,0.95
2023-02-16T01:18:21.150Z,0.98
2023-02-16T01:19:20.319Z,1.01
2023-02-16T01:20:20.324Z,1.05
2023-02-16T01:21:20.353Z,1.04
2023-02-16T01:22:20.332Z,1.05
2023-02-16T01:23:22.045Z,1.06
2023-02-16T01:24:21.020Z,1.16
2023-02-16T01:25:20.279Z,1.14
2023-02-16T01:26:20.329Z,1.04
2023-02-16T01:27:20.270Z,1.12
2023-02-16T01:28:21.026Z,1.02
2023-02-16T01:29:20.287Z,1.01
2023-02-16T01:30:20.271Z,1.05
2023-02-16T01:32:08.215Z,0.96
2023-02-16T01:33:08.100Z,0.96
2023-02-16T01:34:08.104Z,0.99
2023-02-16T01:35:08.086Z,0.81
2023-02-16T01:36:08.087Z,0.83
2023-02-16T01:37:09.179Z,0.84
2023-02-16T01:38:09.171Z,0.88
2023-02-16T01:39:09.168Z,0.78
2023-02-16T01:40:09.139Z,0.81
2023-02-16T01:41:09.970Z,0.80
2023-02-16T01:42:09.135Z,0.74
2023-02-16T01:43:09.131Z,0.68
2023-02-16T01:44:09.126Z,0.70
2023-02-16T01:45:09.111Z,0.73
2023-02-16T01:46:10.034Z,0.73
2023-02-16T01:47:09.110Z,0.59
2023-02-16T01:48:10.044Z,0.65
2023-02-16T01:49:10.970Z,0.66
2023-02-16T01:50:09.120Z,0.66
2023-02-16T01:51:09.064Z,0.68
2023-02-16T01:52:09.064Z,0.65
2023-02-16T01:53:09.971Z,0.65
2023-02-16T01:54:09.044Z,0.73
2023-02-16T01:55:09.034Z,0.69
2023-02-16T01:56:09.024Z,0.73
2023-02-16T01:57:09.047Z,0.66
2023-02-16T01:58:09.546Z,0.76
2023-02-16T01:59:08.992Z,0.78
2023-02-16T02:00:09.009Z,0.80
2023-02-16T02:01:09.970Z,0.81
2023-02-16T02:02:09.101Z,0.86
2023-02-16T02:03:09.067Z,0.73
2023-02-16T02:04:09.009Z,0.74
2023-02-16T02:05:09.558Z,0.81
2023-02-16T02:06:09.478Z,0.83
2023-02-16T02:07:08.931Z,0.87
2023-02-16T02:08:08.930Z,0.83
2023-02-16T02:09:08.957Z,0.80
2023-02-16T02:10:08.932Z,0.92
2023-02-16T02:11:08.911Z,0.81
2023-02-16T02:12:08.920Z,0.83
2023-02-16T02:13:08.944Z,0.92
2023-02-16T02:14:08.896Z,0.96
2023-02-16T21:24:29.168Z,7.38
2023-02-16T21:25:29.397Z,7.40
2023-02-16T21:26:31.034Z,7.53
2023-02-16T21:27:37.059Z,7.39
2023-02-16T21:28:51.064Z,7.51
2023-02-16T21:29:33.208Z,7.42
2023-02-16T21:30:32.083Z,7.48
2023-02-16T21:31:30.272Z,7.43
2023-02-16T21:32:30.187Z,7.45
2023-02-16T21:33:30.171Z,7.51
2023-02-16T21:34:30.177Z,7.50
2023-02-16T21:35:30.172Z,7.58
2023-02-16T21:36:30.168Z,7.56
2023-02-16T21:37:30.142Z,7.51
2023-02-16T21:38:30.129Z,7.57
2023-02-16T21:39:30.126Z,7.58
2023-02-16T21:40:30.122Z,7.56
2023-02-16T21:41:30.128Z,7.56
2023-02-16T21:42:30.111Z,7.63
2023-02-16T21:43:30.098Z,7.58
2023-02-16T21:44:30.114Z,7.58
2023-02-16T21:45:30.086Z,7.56
2023-02-16T21:46:30.079Z,7.69
2023-02-16T21:47:30.054Z,7.61
2023-02-16T21:48:31.050Z,7.57
2023-02-16T21:49:30.054Z,7.56
2023-02-16T21:50:30.044Z,7.67
2023-02-16T21:51:30.042Z,7.70
2023-02-16T21:52:30.025Z,7.73
2023-02-16T21:53:30.017Z,7.67
2023-02-16T21:54:30.032Z,7.75
2023-02-16T21:55:30.578Z,7.70
2023-02-16T21:56:30.038Z,7.75
2023-02-16T21:57:29.981Z,7.73
2023-02-16T21:58:29.980Z,7.61
2023-02-16T21:59:29.993Z,7.67
2023-02-16T22:00:29.964Z,7.69
2023-02-16T22:01:30.492Z,7.75
2023-02-16T22:02:29.954Z,7.58
2023-02-16T22:03:29.951Z,7.66
2023-02-16T22:04:29.943Z,7.66
2023-02-16T22:05:29.924Z,7.67
2023-02-16T22:06:29.926Z,7.69
2023-02-16T22:07:29.911Z,7.75
2023-02-16T22:08:29.893Z,7.63
2023-02-16T22:09:29.898Z,7.66
2023-02-16T22:10:29.876Z,7.60
2023-02-16T22:11:29.876Z,7.63
2023-02-16T22:12:29.872Z,7.69
2023-02-16T22:13:29.868Z,7.67
2023-02-16T22:14:29.846Z,7.72
2023-02-16T22:15:29.881Z,7.63
2023-02-16T22:16:30.626Z,7.61
2023-02-16T22:17:29.833Z,7.77
2023-02-16T22:18:29.853Z,7.79
2023-02-16T22:20:37.156Z,7.80
2023-02-16T22:21:37.150Z,7.82
2023-02-16T22:22:37.145Z,7.93
2023-02-16T22:23:42.046Z,7.88
2023-02-16T22:24:41.030Z,7.80
2023-02-16T22:25:41.156Z,7.85
2023-02-16T22:26:39.016Z,7.87
2023-02-16T22:27:37.114Z,7.88
2023-02-16T22:28:37.097Z,7.85
2023-02-16T22:29:37.094Z,7.94
2023-02-16T22:30:38.102Z,7.97
2023-02-16T22:31:37.260Z,7.97
2023-02-16T22:32:37.160Z,7.95
2023-02-16T22:33:39.024Z,7.97
2023-02-16T22:34:37.047Z,7.93
2023-02-16T22:35:37.041Z,7.95
2023-02-16T22:36:37.135Z,8.05
2023-02-16T22:37:37.043Z,7.95
2023-02-16T22:38:37.021Z,8.00
2023-02-16T22:39:37.024Z,7.94
2023-02-16T22:40:37.539Z,8.01
2023-02-16T22:41:36.994Z,7.97
2023-02-16T22:42:36.990Z,8.06
2023-02-16T22:43:38.092Z,8.05
2023-02-16T22:44:38.124Z,8.05
2023-02-16T22:45:38.094Z,8.03
2023-02-16T22:46:38.084Z,8.03
2023-02-16T22:47:38.056Z,8.09
2023-02-16T22:48:38.040Z,7.98
2023-02-16T22:49:38.025Z,8.09
2023-02-16T22:50:38.040Z,8.10
2023-02-16T22:51:38.626Z,8.08
2023-02-16T22:52:39.014Z,8.05
2023-02-16T22:53:38.006Z,8.09
2023-02-16T22:54:38.007Z,8.09
2023-02-16T22:55:37.983Z,8.15
2023-02-16T22:56:37.995Z,8.13
2023-02-16T22:57:37.979Z,8.13
2023-02-16T22:58:37.957Z,8.15
2023-02-16T22:59:37.964Z,8.16
2023-02-16T23:00:37.954Z,8.24
2023-02-16T23:01:37.952Z,8.19
2023-02-16T23:02:37.922Z,8.27
2023-02-16T23:03:37.960Z,8.18
2023-02-16T23:04:37.961Z,8.23
2023-02-16T23:05:37.918Z,8.23
2023-02-16T23:06:41.115Z,8.20
2023-02-16T23:07:37.885Z,8.24
2023-02-16T23:08:39.619Z,8.16
2023-02-16T23:09:37.871Z,8.08
2023-02-16T23:10:37.888Z,8.12
2023-02-16T23:12:24.743Z,8.00
2023-02-16T23:13:26.638Z,8.06
2023-02-16T23:14:24.718Z,7.98
2023-02-16T23:15:24.724Z,8.00
2023-02-16T23:16:24.773Z,8.09
2023-02-16T23:17:24.704Z,8.05
2023-02-16T23:18:24.698Z,8.05
2023-02-16T23:19:24.687Z,8.15
2023-02-16T23:20:25.766Z,8.16
2023-02-16T23:21:25.780Z,8.13
2023-02-16T23:22:25.757Z,8.19
2023-02-16T23:23:25.766Z,8.16
2023-02-16T23:24:25.766Z,8.13
2023-02-16T23:25:25.742Z,8.16
2023-02-16T23:26:25.744Z,8.16
2023-02-16T23:27:25.716Z,8.19
2023-02-16T23:28:25.718Z,8.30
2023-02-16T23:29:25.703Z,8.26
2023-02-16T23:30:25.756Z,8.24
2023-02-16T23:31:25.878Z,8.12
2023-02-16T23:32:25.674Z,8.06
2023-02-16T23:33:25.671Z,7.97
2023-02-16T23:34:25.668Z,8.09
2023-02-16T23:35:27.733Z,8.06
2023-02-16T23:36:29.154Z,8.10
2023-02-16T23:37:25.654Z,8.12
2023-02-16T23:38:25.630Z,8.20
2023-02-16T23:39:25.614Z,8.19
2023-02-16T23:40:26.608Z,8.20
2023-02-16T23:41:27.166Z,8.16
2023-02-16T23:42:25.641Z,8.19
2023-02-16T23:43:25.605Z,8.19
2023-02-16T23:44:25.579Z,8.24
2023-02-16T23:45:25.598Z,8.24
2023-02-16T23:46:29.221Z,8.26
2023-02-16T23:47:25.554Z,8.24
2023-02-16T23:48:25.556Z,8.30
2023-02-16T23:49:25.537Z,8.27
2023-02-16T23:50:25.552Z,8.13
2023-02-16T23:51:25.523Z,8.24
2023-02-16T23:52:25.512Z,8.24
2023-02-16T23:53:25.521Z,8.18
2023-02-16T23:54:26.189Z,8.26
2023-02-16T23:55:25.493Z,8.28
2023-02-16T23:56:25.481Z,8.31
2023-02-16T23:57:25.468Z,8.23
2023-02-16T23:58:25.472Z,8.28
2023-02-16T23:59:25.459Z,8.24
